Holdenville, Oklahoma
Current Conditions -  °F | °C
As of 8:35 AM on Thursday 23 Oct 2014 (Local Time) from KADH Reporting Station
Light Rain Light Rain  
Wind Chill: 59°   Ceiling: 4800
Heat Index: 59°   Visibility: 10mi
Dew Point: 55°   Wind: 9mph
Humidity: 88%   Direction: 150°SSE
Pressure: 30.16"   Gusts: NA
Location:  35.08°N, 96.4°W
Report Text: KADH 231335Z AUTO 15008KT 10SM -RA BKN048 OVC060 15/13 A3016 RMK AO2
Loading
Personal Weather Stations






























Interactive Weather Map
Tropical Storm Tracking
New forecast layout! Learn more

10-Day Weather Forecast

Advertisements
Track Severe Weather on mobile